Time;durP1;ratioP1;P1;durP2;ratioP2;P2;SDS_P1;SDS_P2;PMS_P1;PMS_P2;Temp;Humidity;BMP_temperature;BMP_pressure;BME280_temperature;BME280_humidity;BME280_pressure;Samples;Min_cycle;Max_cycle;Signal;HPM_P1;HPM_P2
2024/04/19 00:01:48;;;;;;;;;;;7.20;99.90;;;;;;5438727;26;20387;-54
2024/04/19 00:04:14;;;;;;;;;;;7.20;99.90;;;;;;5453563;26;20375;-53
2024/04/19 00:06:40;;;;;;;;;;;7.20;99.90;;;;;;5439395;26;19928;-54
2024/04/19 00:09:05;;;;;;;;;;;7.20;99.90;;;;;;5456106;26;20394;-54
2024/04/19 00:11:31;;;;;;;;;;;7.30;99.90;;;;;;5449829;26;19940;-53
2024/04/19 00:13:57;;;;;;;;;;;7.30;99.90;;;;;;5451239;26;20633;-53
2024/04/19 00:16:25;;;;;;;;;;;7.20;99.90;;;;;;5446528;26;19936;-54
2024/04/19 00:18:50;;;;;;;;;;;7.20;99.90;;;;;;5440097;26;19928;-55
2024/04/19 00:21:16;;;;;;;;;;;7.20;99.90;;;;;;5440304;26;19935;-53
2024/04/19 00:23:42;;;;;;;;;;;7.30;99.90;;;;;;5439554;26;19930;-54
2024/04/19 00:26:08;;;;;;;;;;;7.20;99.90;;;;;;5441107;26;20040;-54
2024/04/19 00:28:33;;;;;;;;;;;7.20;99.90;;;;;;5444457;26;20383;-54
2024/04/19 00:30:59;;;;;;;;;;;7.30;99.90;;;;;;5432768;26;19935;-54
2024/04/19 00:33:25;;;;;;;;;;;7.30;99.90;;;;;;5433745;26;20316;-54
2024/04/19 00:35:51;;;;;;;;;;;7.30;99.90;;;;;;5454823;26;19935;-54
2024/04/19 00:38:16;;;;;;;;;;;7.30;99.90;;;;;;5439117;26;19948;-54
2024/04/19 00:40:43;;;;;;;;;;;7.30;99.90;;;;;;5444835;26;19929;-54
2024/04/19 00:43:09;;;;;;;;;;;7.40;99.90;;;;;;5452255;26;19939;-55
2024/04/19 00:45:35;;;;;;;;;;;7.40;99.90;;;;;;5452898;26;19928;-53
2024/04/19 00:48:10;;;;;;;;;;;7.30;99.90;;;;;;5442402;26;20387;-54
2024/04/19 00:50:36;;;;;;;;;;;7.40;99.90;;;;;;5443047;26;19932;-54
2024/04/19 00:53:03;;;;;;;;;;;7.30;99.90;;;;;;5435796;26;19935;-55
2024/04/19 00:55:29;;;;;;;;;;;7.40;99.90;;;;;;5443575;26;19996;-55
2024/04/19 00:57:55;;;;;;;;;;;7.30;99.90;;;;;;5453465;26;19928;-54
2024/04/19 01:00:22;;;;;;;;;;;7.40;99.90;;;;;;5438753;26;19947;-54
2024/04/19 01:02:48;;;;;;;;;;;7.40;99.90;;;;;;5450839;26;20372;-54
2024/04/19 01:05:13;;;;;;;;;;;7.30;99.90;;;;;;5445328;26;20018;-56
2024/04/19 01:07:44;;;;;;;;;;;7.40;99.90;;;;;;5445563;26;19929;-53
2024/04/19 01:10:10;;;;;;;;;;;7.30;99.90;;;;;;5451352;26;20460;-55
2024/04/19 01:12:35;;;;;;;;;;;7.40;99.90;;;;;;5443123;26;19932;-54
2024/04/19 01:15:01;;;;;;;;;;;7.40;99.90;;;;;;5447493;26;20023;-54
2024/04/19 01:17:27;;;;;;;;;;;7.40;99.90;;;;;;5452482;26;20714;-54
2024/04/19 01:19:52;;;;;;;;;;;7.40;99.90;;;;;;5458612;26;20260;-55
2024/04/19 01:22:18;;;;;;;;;;;7.40;99.90;;;;;;5461181;26;19948;-54
2024/04/19 01:24:48;;;;;;;;;;;7.50;99.90;;;;;;5443328;26;20281;-53
2024/04/19 01:27:14;;;;;;;;;;;7.50;99.90;;;;;;5448819;26;19935;-54
2024/04/19 01:29:40;;;;;;;;;;;7.40;99.90;;;;;;5446320;26;19928;-54
2024/04/19 01:32:06;;;;;;;;;;;7.50;99.90;;;;;;5439061;26;19951;-54
2024/04/19 01:34:31;;;;;;;;;;;7.40;99.90;;;;;;5435772;26;20007;-55
2024/04/19 01:36:57;;;;;;;;;;;7.50;99.90;;;;;;5438215;26;19936;-54
2024/04/19 01:39:24;;;;;;;;;;;7.40;99.90;;;;;;5439560;26;19928;-53
2024/04/19 01:41:50;;;;;;;;;;;7.50;99.90;;;;;;5458799;26;19927;-53
2024/04/19 01:44:15;;;;;;;;;;;7.40;99.90;;;;;;5447129;26;20001;-54
2024/04/19 01:46:41;;;;;;;;;;;7.50;99.90;;;;;;5449915;26;19962;-54
2024/04/19 01:49:07;;;;;;;;;;;7.40;99.90;;;;;;5449541;26;19937;-53
2024/04/19 01:51:33;;;;;;;;;;;7.50;99.90;;;;;;5446352;26;20305;-54
2024/04/19 01:53:59;;;;;;;;;;;7.40;99.90;;;;;;5441815;26;20512;-54
2024/04/19 01:56:25;;;;;;;;;;;7.50;99.90;;;;;;5460440;26;20416;-54
2024/04/19 01:58:51;;;;;;;;;;;7.50;99.90;;;;;;5440540;26;20458;-54
2024/04/19 02:01:17;;;;;;;;;;;7.50;99.90;;;;;;5451523;26;19928;-54
2024/04/19 02:03:43;;;;;;;;;;;7.40;99.90;;;;;;5449472;26;19943;-54
2024/04/19 02:06:12;;;;;;;;;;;7.50;99.90;;;;;;5453970;26;19928;-54
2024/04/19 02:08:37;;;;;;;;;;;7.60;99.90;;;;;;5441774;26;20275;-55
2024/04/19 02:11:04;;;;;;;;;;;7.60;99.90;;;;;;5445808;26;19999;-54
2024/04/19 02:13:30;;;;;;;;;;;7.60;99.90;;;;;;5460173;26;19940;-54
2024/04/19 02:15:56;;;;;;;;;;;7.60;99.90;;;;;;5461672;26;20444;-55
2024/04/19 02:18:21;;;;;;;;;;;7.60;99.90;;;;;;5440232;26;19967;-52
2024/04/19 02:20:47;;;;;;;;;;;7.50;99.90;;;;;;5446319;26;20006;-55
2024/04/19 02:23:13;;;;;;;;;;;7.50;99.90;;;;;;5446635;26;19928;-55
2024/04/19 02:25:38;;;;;;;;;;;7.60;99.90;;;;;;5453578;26;19936;-55
2024/04/19 02:30:53;;;;;;;;;;;7.60;99.90;;;;;;5460303;26;19929;-54
2024/04/19 02:33:18;;;;;;;;;;;7.60;99.90;;;;;;5438024;26;19943;-54
2024/04/19 02:35:44;;;;;;;;;;;7.60;99.90;;;;;;5449672;26;20319;-54
2024/04/19 02:38:10;;;;;;;;;;;7.70;99.90;;;;;;5447201;26;20347;-54
2024/04/19 02:40:36;;;;;;;;;;;7.60;99.90;;;;;;5443657;26;19936;-54
2024/04/19 02:43:22;;;;;;;;;;;7.70;99.90;;;;;;5437986;26;20333;-54
2024/04/19 02:45:47;;;;;;;;;;;7.80;99.90;;;;;;5443580;26;19936;-55
2024/04/19 02:48:13;;;;;;;;;;;7.70;99.90;;;;;;5443669;26;19949;-55
2024/04/19 02:50:39;;;;;;;;;;;7.80;99.90;;;;;;5437567;26;20353;-55
2024/04/19 02:53:04;;;;;;;;;;;7.90;99.90;;;;;;5439502;26;19929;-54
2024/04/19 02:55:30;;;;;;;;;;;7.80;99.90;;;;;;5449656;26;20387;-54
2024/04/19 02:57:56;;;;;;;;;;;7.80;99.90;;;;;;5458100;26;19940;-54
2024/04/19 03:00:21;;;;;;;;;;;7.90;99.90;;;;;;5440173;26;19928;-54
2024/04/19 03:02:48;;;;;;;;;;;7.90;99.90;;;;;;5442768;26;19928;-55
2024/04/19 03:05:14;;;;;;;;;;;7.90;99.90;;;;;;5439732;26;19936;-55
2024/04/19 03:07:40;;;;;;;;;;;7.90;99.90;;;;;;5458175;26;20400;-54
2024/04/19 03:10:25;;;;;;;;;;;8.10;99.90;;;;;;5455862;26;19927;-53
2024/04/19 03:12:52;;;;;;;;;;;8.10;99.90;;;;;;5470234;26;19960;-54
2024/04/19 03:15:18;;;;;;;;;;;8.00;99.90;;;;;;5450519;26;20325;-53
2024/04/19 03:17:44;;;;;;;;;;;8.10;99.90;;;;;;5465678;26;19965;-52
2024/04/19 03:20:12;;;;;;;;;;;8.10;99.90;;;;;;5449553;26;19929;-55
2024/04/19 03:22:38;;;;;;;;;;;8.30;99.90;;;;;;5439944;26;20394;-54
2024/04/19 03:25:04;;;;;;;;;;;8.20;99.90;;;;;;5458709;26;20360;-55
2024/04/19 03:27:29;;;;;;;;;;;8.30;99.90;;;;;;5440396;26;20402;-55
2024/04/19 03:29:55;;;;;;;;;;;8.30;99.90;;;;;;5445799;26;19965;-55
2024/04/19 03:32:23;;;;;;;;;;;8.30;99.90;;;;;;5453184;26;20399;-54
2024/04/19 03:34:49;;;;;;;;;;;8.50;99.90;;;;;;5439560;26;19932;-55
2024/04/19 03:37:15;;;;;;;;;;;8.50;99.90;;;;;;5451407;26;19941;-55
2024/04/19 03:39:41;;;;;;;;;;;8.40;99.90;;;;;;5445414;26;19980;-54
2024/04/19 03:42:11;;;;;;;;;;;8.50;99.90;;;;;;5453307;26;19935;-55
2024/04/19 03:47:21;;;;;;;;;;;8.60;99.90;;;;;;5444262;26;19939;-55
2024/04/19 03:50:06;;;;;;;;;;;8.60;99.90;;;;;;5421152;26;20437;-53
2024/04/19 03:52:32;;;;;;;;;;;8.60;99.90;;;;;;5444205;26;20021;-53
2024/04/19 03:54:58;;;;;;;;;;;8.70;99.90;;;;;;5443738;26;19935;-54
2024/04/19 03:57:24;;;;;;;;;;;8.70;99.90;;;;;;5442248;26;19981;-54
2024/04/19 04:00:06;;;;;;;;;;;8.80;99.90;;;;;;5456372;26;19928;-55
2024/04/19 04:02:32;;;;;;;;;;;8.70;99.90;;;;;;5441909;26;20433;-54
2024/04/19 04:05:18;;;;;;;;;;;8.90;99.90;;;;;;5450549;26;20298;-54
2024/04/19 04:07:44;;;;;;;;;;;8.90;99.90;;;;;;5464065;26;19928;-56
2024/04/19 04:10:10;;;;;;;;;;;8.90;99.90;;;;;;5444587;26;19932;-55
2024/04/19 04:12:36;;;;;;;;;;;8.90;99.90;;;;;;5455051;26;19933;-54
2024/04/19 04:15:02;;;;;;;;;;;8.90;99.90;;;;;;5453184;26;19944;-55
2024/04/19 04:17:27;;;;;;;;;;;8.90;99.90;;;;;;5453059;26;20406;-53
2024/04/19 04:19:53;;;;;;;;;;;8.90;99.90;;;;;;5458963;26;19940;-55
2024/04/19 04:22:19;;;;;;;;;;;8.90;99.90;;;;;;5442863;26;19928;-53
2024/04/19 04:24:45;;;;;;;;;;;8.90;99.90;;;;;;5441164;26;19988;-54
2024/04/19 04:27:11;;;;;;;;;;;9.00;99.90;;;;;;5453262;26;19939;-54
2024/04/19 04:29:36;;;;;;;;;;;9.00;99.90;;;;;;5442925;26;19936;-54
2024/04/19 04:32:02;;;;;;;;;;;8.90;99.90;;;;;;5472510;26;19935;-54
2024/04/19 04:34:28;;;;;;;;;;;8.90;99.90;;;;;;5427648;26;20425;-54
2024/04/19 04:36:54;;;;;;;;;;;8.90;99.90;;;;;;5451577;26;19928;-54
2024/04/19 04:39:19;;;;;;;;;;;9.00;99.90;;;;;;5437741;26;19935;-55
2024/04/19 04:41:45;;;;;;;;;;;8.90;99.90;;;;;;5451615;26;20500;-53
2024/04/19 04:44:11;;;;;;;;;;;9.00;99.90;;;;;;5469780;26;20435;-54
2024/04/19 04:46:37;;;;;;;;;;;9.00;99.90;;;;;;5440973;26;19951;-53
2024/04/19 04:49:06;;;;;;;;;;;9.00;99.90;;;;;;5452897;26;20001;-61
2024/04/19 04:51:32;;;;;;;;;;;8.90;99.90;;;;;;5451367;26;19934;-54
2024/04/19 04:53:58;;;;;;;;;;;8.90;99.90;;;;;;5450355;26;20422;-52
2024/04/19 04:56:24;;;;;;;;;;;8.90;99.90;;;;;;5448859;26;19936;-54
2024/04/19 04:58:50;;;;;;;;;;;8.90;99.90;;;;;;5432919;26;19936;-53
2024/04/19 05:01:15;;;;;;;;;;;8.80;99.90;;;;;;5440462;26;19936;-55
2024/04/19 05:03:41;;;;;;;;;;;8.90;99.90;;;;;;5442809;26;20427;-54
2024/04/19 05:06:08;;;;;;;;;;;8.90;99.90;;;;;;5449906;26;20001;-53
2024/04/19 05:08:33;;;;;;;;;;;8.80;99.90;;;;;;5450278;26;20330;-54
2024/04/19 05:10:59;;;;;;;;;;;8.90;99.90;;;;;;5448632;26;20406;-54
2024/04/19 05:13:26;;;;;;;;;;;8.90;99.90;;;;;;5452026;26;19928;-54
2024/04/19 05:15:53;;;;;;;;;;;8.90;99.90;;;;;;5449773;26;20533;-54
2024/04/19 05:18:18;;;;;;;;;;;8.90;99.90;;;;;;5446301;26;19928;-55
2024/04/19 05:20:47;;;;;;;;;;;8.90;99.90;;;;;;5451365;26;19947;-55
2024/04/19 05:23:13;;;;;;;;;;;8.90;99.90;;;;;;5447671;26;19936;-55
2024/04/19 05:25:39;;;;;;;;;;;8.90;99.90;;;;;;5451544;26;19995;-54
2024/04/19 05:28:05;;;;;;;;;;;8.80;99.90;;;;;;5451090;26;20759;-54
2024/04/19 05:30:31;;;;;;;;;;;8.90;99.90;;;;;;5453104;26;19929;-55
2024/04/19 05:32:57;;;;;;;;;;;8.90;99.90;;;;;;5451927;26;20454;-54
2024/04/19 05:35:23;;;;;;;;;;;8.90;99.90;;;;;;5437378;26;19928;-55
2024/04/19 05:37:51;;;;;;;;;;;8.90;99.90;;;;;;5434064;26;19935;-55
2024/04/19 05:40:19;;;;;;;;;;;8.80;99.90;;;;;;5449122;26;19932;-55
2024/04/19 05:42:45;;;;;;;;;;;8.80;99.90;;;;;;5432777;26;19928;-55
2024/04/19 05:45:10;;;;;;;;;;;8.90;99.90;;;;;;5445066;26;19939;-54
2024/04/19 05:47:36;;;;;;;;;;;8.80;99.90;;;;;;5428228;26;20379;-54
2024/04/19 05:50:02;;;;;;;;;;;8.80;99.90;;;;;;5442447;26;19928;-55
2024/04/19 05:52:28;;;;;;;;;;;8.80;99.90;;;;;;5447188;26;19935;-54
2024/04/19 05:54:53;;;;;;;;;;;8.90;99.90;;;;;;5448813;26;20260;-53
2024/04/19 05:57:19;;;;;;;;;;;8.90;99.90;;;;;;5455085;26;19947;-54
2024/04/19 05:59:45;;;;;;;;;;;8.90;99.90;;;;;;5450929;26;19965;-55
2024/04/19 06:02:11;;;;;;;;;;;8.90;99.90;;;;;;5451290;26;19932;-53
2024/04/19 06:04:36;;;;;;;;;;;8.90;99.90;;;;;;5441245;26;20390;-55
2024/04/19 06:07:03;;;;;;;;;;;9.00;99.90;;;;;;5446213;26;19996;-55
2024/04/19 06:09:29;;;;;;;;;;;8.90;99.90;;;;;;5476296;26;19928;-55
2024/04/19 06:11:55;;;;;;;;;;;8.90;99.90;;;;;;5449451;26;20020;-55
2024/04/19 06:14:20;;;;;;;;;;;8.90;99.90;;;;;;5456192;26;20478;-55
2024/04/19 06:16:46;;;;;;;;;;;8.90;99.90;;;;;;5448429;26;19947;-55
2024/04/19 06:19:12;;;;;;;;;;;8.90;99.90;;;;;;5448653;26;20414;-54
2024/04/19 06:21:37;;;;;;;;;;;9.00;99.90;;;;;;5442016;26;19932;-55
2024/04/19 06:24:03;;;;;;;;;;;9.00;99.90;;;;;;5448803;26;19928;-54
2024/04/19 06:26:29;;;;;;;;;;;9.00;99.90;;;;;;5451712;26;19937;-55
2024/04/19 06:28:55;;;;;;;;;;;9.00;99.90;;;;;;5452186;26;19936;-53
2024/04/19 06:31:21;;;;;;;;;;;9.00;99.90;;;;;;5442700;26;19942;-55
2024/04/19 06:33:46;;;;;;;;;;;9.00;99.90;;;;;;5451426;26;19928;-55
2024/04/19 06:36:12;;;;;;;;;;;9.00;99.90;;;;;;5440999;26;20527;-53
2024/04/19 06:38:38;;;;;;;;;;;9.00;99.90;;;;;;5448221;26;19928;-54
2024/04/19 06:41:03;;;;;;;;;;;9.10;99.90;;;;;;5443952;26;19928;-55
2024/04/19 06:43:29;;;;;;;;;;;9.10;99.90;;;;;;5444944;26;19940;-53
2024/04/19 06:45:59;;;;;;;;;;;9.20;99.90;;;;;;5443484;26;19940;-55
2024/04/19 06:48:25;;;;;;;;;;;9.20;99.90;;;;;;5447953;26;19988;-54
2024/04/19 06:50:50;;;;;;;;;;;9.40;99.90;;;;;;5433312;26;19929;-55
2024/04/19 06:53:18;;;;;;;;;;;9.80;99.90;;;;;;5446539;26;19928;-54
2024/04/19 06:55:44;;;;;;;;;;;10.20;99.90;;;;;;5449063;26;20100;-55
2024/04/19 06:58:10;;;;;;;;;;;10.40;99.90;;;;;;5451526;26;20450;-55
2024/04/19 07:00:39;;;;;;;;;;;10.40;99.90;;;;;;5445104;26;20005;-55
2024/04/19 07:03:05;;;;;;;;;;;10.80;99.90;;;;;;5449246;26;19928;-55
2024/04/19 07:05:31;;;;;;;;;;;10.70;99.90;;;;;;5429725;26;20091;-55
2024/04/19 07:07:58;;;;;;;;;;;10.80;99.90;;;;;;5445909;26;19940;-55
2024/04/19 07:10:24;;;;;;;;;;;10.70;99.90;;;;;;5448800;26;19932;-55
2024/04/19 07:12:50;;;;;;;;;;;10.60;99.90;;;;;;5450944;26;19979;-54
2024/04/19 07:15:16;;;;;;;;;;;10.60;99.90;;;;;;5432246;26;19947;-55
2024/04/19 07:17:42;;;;;;;;;;;10.60;99.90;;;;;;5443450;26;20270;-59
2024/04/19 07:20:07;;;;;;;;;;;10.50;99.90;;;;;;5446849;26;20000;-55
2024/04/19 07:22:33;;;;;;;;;;;10.60;99.90;;;;;;5452064;26;20471;-55
2024/04/19 07:24:59;;;;;;;;;;;10.50;99.90;;;;;;5445706;26;19929;-55
2024/04/19 07:27:26;;;;;;;;;;;10.50;99.90;;;;;;5450120;26;19928;-55
2024/04/19 07:29:52;;;;;;;;;;;10.50;99.90;;;;;;5450604;26;19929;-55
2024/04/19 07:32:20;;;;;;;;;;;10.70;99.90;;;;;;5453377;26;19973;-53
2024/04/19 07:34:46;;;;;;;;;;;10.80;99.90;;;;;;5445072;26;20364;-55
2024/04/19 07:37:12;;;;;;;;;;;10.90;99.90;;;;;;5448480;26;19928;-55
2024/04/19 07:39:37;;;;;;;;;;;10.90;99.90;;;;;;5449588;26;20257;-55
2024/04/19 07:42:03;;;;;;;;;;;11.00;99.90;;;;;;5438768;26;19981;-54
2024/04/19 07:44:29;;;;;;;;;;;11.20;99.90;;;;;;5428164;26;19929;-55
2024/04/19 07:46:54;;;;;;;;;;;11.30;99.90;;;;;;5449579;26;19936;-55
2024/04/19 07:49:20;;;;;;;;;;;11.30;99.90;;;;;;5443655;26;19937;-55
2024/04/19 07:51:46;;;;;;;;;;;11.50;99.90;;;;;;5452494;26;19935;-55
2024/04/19 07:54:12;;;;;;;;;;;11.30;99.90;;;;;;5446243;26;19936;-55
2024/04/19 07:56:41;;;;;;;;;;;11.20;99.90;;;;;;5450468;26;19935;-54
2024/04/19 07:59:07;;;;;;;;;;;11.10;99.90;;;;;;5435459;26;19928;-55
2024/04/19 08:01:33;;;;;;;;;;;11.10;99.90;;;;;;5442294;26;19988;-55
2024/04/19 08:03:59;;;;;;;;;;;11.00;99.90;;;;;;5446497;26;19936;-55
2024/04/19 08:06:25;;;;;;;;;;;10.80;99.90;;;;;;5442555;26;20252;-55
2024/04/19 08:08:51;;;;;;;;;;;10.80;99.90;;;;;;5434745;26;19936;-54
2024/04/19 08:11:17;;;;;;;;;;;11.10;99.90;;;;;;5430062;26;20473;-54
2024/04/19 08:13:43;;;;;;;;;;;11.40;99.90;;;;;;5438123;26;20012;-53
2024/04/19 08:16:09;;;;;;;;;;;11.40;99.90;;;;;;5433341;26;20276;-55
2024/04/19 08:18:35;;;;;;;;;;;11.30;99.90;;;;;;5446507;26;19936;-53
2024/04/19 08:21:01;;;;;;;;;;;11.30;99.90;;;;;;5444816;26;19932;-55
2024/04/19 08:23:27;;;;;;;;;;;11.30;99.90;;;;;;5446210;26;19958;-54
2024/04/19 08:25:53;;;;;;;;;;;11.20;99.90;;;;;;5445807;26;19936;-55
2024/04/19 08:28:19;;;;;;;;;;;11.30;99.90;;;;;;5446179;26;20022;-54
2024/04/19 08:30:47;;;;;;;;;;;11.40;99.90;;;;;;5444962;26;19932;-56
2024/04/19 08:33:13;;;;;;;;;;;11.50;99.90;;;;;;5454593;26;20360;-55
2024/04/19 08:35:39;;;;;;;;;;;11.50;99.90;;;;;;5432815;26;20371;-54
2024/04/19 08:38:05;;;;;;;;;;;11.60;99.90;;;;;;5447533;26;20291;-54
2024/04/19 08:40:32;;;;;;;;;;;11.60;99.90;;;;;;5449208;26;20004;-55
2024/04/19 08:42:58;;;;;;;;;;;11.70;99.90;;;;;;5439503;26;19929;-56
2024/04/19 08:45:24;;;;;;;;;;;11.70;99.90;;;;;;5439979;26;20057;-55
2024/04/19 08:47:50;;;;;;;;;;;11.60;99.90;;;;;;5446450;26;19940;-53
2024/04/19 08:50:16;;;;;;;;;;;11.60;99.90;;;;;;5449865;26;20037;-55
2024/04/19 08:52:45;;;;;;;;;;;11.70;99.90;;;;;;5443113;26;20018;-55
2024/04/19 08:55:11;;;;;;;;;;;11.60;99.90;;;;;;5445423;26;19966;-54
2024/04/19 08:57:40;;;;;;;;;;;11.40;99.90;;;;;;5449320;26;20267;-55
2024/04/19 09:00:07;;;;;;;;;;;11.40;99.90;;;;;;5435786;26;19957;-55
2024/04/19 09:02:33;;;;;;;;;;;11.50;99.90;;;;;;5438000;26;19928;-54
2024/04/19 09:05:01;;;;;;;;;;;11.70;99.90;;;;;;5446794;26;19935;-55
2024/04/19 09:07:27;;;;;;;;;;;11.90;99.90;;;;;;5448727;26;19932;-55
2024/04/19 09:09:53;;;;;;;;;;;12.00;99.90;;;;;;5448078;26;19928;-55
2024/04/19 09:12:19;;;;;;;;;;;12.00;99.90;;;;;;5444084;26;20289;-55
2024/04/19 09:14:49;;;;;;;;;;;12.00;99.90;;;;;;5448246;26;20026;-55
2024/04/19 09:17:14;;;;;;;;;;;12.10;99.90;;;;;;5445877;26;19932;-55
2024/04/19 09:19:41;;;;;;;;;;;12.00;99.90;;;;;;5445489;26;20405;-55
2024/04/19 09:22:06;;;;;;;;;;;11.80;99.90;;;;;;5450861;26;19969;-54
2024/04/19 09:24:32;;;;;;;;;;;11.50;99.90;;;;;;5451009;26;20013;-55
2024/04/19 09:26:58;;;;;;;;;;;11.50;99.90;;;;;;5447880;26;20435;-55
2024/04/19 09:29:24;;;;;;;;;;;11.30;99.90;;;;;;5454387;26;19928;-54
2024/04/19 09:31:50;;;;;;;;;;;11.00;99.90;;;;;;5457693;26;20070;-53
2024/04/19 09:34:16;;;;;;;;;;;10.70;99.90;;;;;;5455131;26;19948;-54
2024/04/19 09:36:47;;;;;;;;;;;10.50;99.90;;;;;;5449380;26;19928;-54
2024/04/19 09:39:13;;;;;;;;;;;10.40;99.90;;;;;;5451981;26;19939;-55
2024/04/19 09:41:40;;;;;;;;;;;10.20;99.90;;;;;;5453402;26;19932;-54
2024/04/19 09:44:07;;;;;;;;;;;10.10;99.90;;;;;;5455697;26;19967;-54
2024/04/19 09:46:34;;;;;;;;;;;10.20;99.90;;;;;;5455707;26;19936;-54
2024/04/19 09:49:01;;;;;;;;;;;10.20;99.90;;;;;;5450704;26;20281;-54
2024/04/19 09:51:33;;;;;;;;;;;10.30;99.90;;;;;;5452031;26;19928;-55
2024/04/19 09:54:01;;;;;;;;;;;10.50;99.90;;;;;;5448889;26;19936;-55
2024/04/19 09:56:33;;;;;;;;;;;10.60;99.90;;;;;;5453944;26;19940;-55
2024/04/19 09:58:59;;;;;;;;;;;10.70;99.90;;;;;;5450093;26;20064;-55
2024/04/19 10:01:25;;;;;;;;;;;10.70;99.90;;;;;;5452683;26;19936;-55
2024/04/19 10:03:51;;;;;;;;;;;10.60;99.90;;;;;;5452610;26;20376;-55
2024/04/19 10:06:18;;;;;;;;;;;10.50;99.90;;;;;;5454309;26;19937;-54
2024/04/19 10:08:45;;;;;;;;;;;10.50;99.90;;;;;;5450528;26;20441;-55
2024/04/19 10:11:12;;;;;;;;;;;10.50;99.90;;;;;;5455793;26;20661;-55
2024/04/19 10:13:38;;;;;;;;;;;10.50;99.90;;;;;;5451710;26;19932;-53
2024/04/19 10:16:05;;;;;;;;;;;10.60;99.90;;;;;;5453484;26;20010;-54
2024/04/19 10:18:33;;;;;;;;;;;10.80;99.90;;;;;;5450188;26;19928;-54
2024/04/19 10:20:59;;;;;;;;;;;10.70;99.90;;;;;;5452220;26;20029;-55
2024/04/19 10:23:25;;;;;;;;;;;10.70;99.90;;;;;;5447181;26;19936;-55
2024/04/19 10:25:51;;;;;;;;;;;10.40;99.90;;;;;;5451987;26;19928;-54
2024/04/19 10:28:16;;;;;;;;;;;10.10;99.90;;;;;;5452475;26;19948;-55
2024/04/19 10:30:44;;;;;;;;;;;9.90;99.90;;;;;;5452386;26;20359;-54
2024/04/19 10:33:10;;;;;;;;;;;9.80;99.90;;;;;;5446890;26;19928;-53
2024/04/19 10:35:36;;;;;;;;;;;9.70;99.90;;;;;;5448221;26;19940;-53
2024/04/19 10:38:02;;;;;;;;;;;9.70;99.90;;;;;;5441984;26;19940;-53
2024/04/19 10:40:29;;;;;;;;;;;9.80;99.90;;;;;;5448892;26;20348;-53
2024/04/19 10:43:02;;;;;;;;;;;9.80;99.90;;;;;;5444089;26;19928;-54
2024/04/19 10:45:30;;;;;;;;;;;9.80;99.90;;;;;;5449963;26;19935;-53
2024/04/19 10:47:59;;;;;;;;;;;9.80;99.90;;;;;;5446303;26;19943;-53
2024/04/19 10:50:26;;;;;;;;;;;9.70;99.90;;;;;;5452813;26;19936;-53
2024/04/19 10:52:53;;;;;;;;;;;9.80;99.90;;;;;;5449220;26;19935;-54
2024/04/19 10:55:19;;;;;;;;;;;9.80;99.90;;;;;;5448429;26;19929;-54
2024/04/19 10:57:45;;;;;;;;;;;9.90;99.90;;;;;;5446498;26;20459;-53
2024/04/19 11:00:12;;;;;;;;;;;9.90;99.90;;;;;;5445380;26;19944;-54
2024/04/19 11:02:39;;;;;;;;;;;10.00;99.90;;;;;;5450551;26;19928;-53
2024/04/19 11:05:06;;;;;;;;;;;9.80;99.90;;;;;;5450550;26;20438;-54
2024/04/19 11:07:33;;;;;;;;;;;9.90;99.90;;;;;;5447426;26;19935;-52
2024/04/19 11:09:58;;;;;;;;;;;10.00;99.90;;;;;;5445151;26;19934;-54
2024/04/19 11:12:25;;;;;;;;;;;10.30;99.90;;;;;;5447975;26;19935;-54
2024/04/19 11:14:51;;;;;;;;;;;10.50;99.90;;;;;;5451583;26;19956;-53
2024/04/19 11:17:17;;;;;;;;;;;10.50;99.90;;;;;;5450130;26;19936;-54
2024/04/19 11:19:43;;;;;;;;;;;10.60;99.90;;;;;;5448854;26;19928;-53
2024/04/19 11:22:09;;;;;;;;;;;10.70;99.90;;;;;;5448884;26;20376;-54
2024/04/19 11:24:35;;;;;;;;;;;10.80;99.90;;;;;;5450336;26;19947;-54
2024/04/19 11:27:01;;;;;;;;;;;11.10;99.90;;;;;;5452482;26;19929;-53
2024/04/19 11:29:27;;;;;;;;;;;11.20;99.90;;;;;;5452108;26;20019;-54
2024/04/19 11:31:52;;;;;;;;;;;11.10;99.90;;;;;;5453247;26;20421;-53
2024/04/19 11:34:18;;;;;;;;;;;11.60;99.90;;;;;;5448549;26;19927;-54
2024/04/19 11:36:44;;;;;;;;;;;11.60;99.90;;;;;;5449350;26;20500;-53
2024/04/19 11:39:11;;;;;;;;;;;11.40;99.90;;;;;;5452599;26;19967;-53
2024/04/19 11:41:37;;;;;;;;;;;11.60;99.90;;;;;;5448683;26;19944;-53
2024/04/19 11:44:04;;;;;;;;;;;11.90;99.90;;;;;;5450587;26;19936;-54
2024/04/19 11:46:31;;;;;;;;;;;11.70;99.90;;;;;;5451905;26;19940;-53
2024/04/19 11:49:06;;;;;;;;;;;11.50;99.90;;;;;;5451052;26;19972;-54
2024/04/19 11:51:33;;;;;;;;;;;11.30;99.90;;;;;;5449000;26;20884;-54
2024/04/19 11:53:58;;;;;;;;;;;11.60;99.90;;;;;;5448103;26;19939;-54
2024/04/19 11:56:24;;;;;;;;;;;12.00;99.90;;;;;;5453476;26;19935;-54
2024/04/19 11:58:52;;;;;;;;;;;12.30;99.90;;;;;;5451701;26;20959;-54
2024/04/19 12:01:18;;;;;;;;;;;12.60;99.90;;;;;;5446654;26;20535;-54
2024/04/19 12:03:44;;;;;;;;;;;12.50;99.90;;;;;;5452708;26;19939;-54
2024/04/19 12:06:10;;;;;;;;;;;12.40;99.90;;;;;;5449229;26;19928;-54
2024/04/19 12:08:35;;;;;;;;;;;12.30;99.90;;;;;;5446265;26;19929;-53
2024/04/19 12:11:02;;;;;;;;;;;12.40;99.90;;;;;;5452326;26;19928;-54
2024/04/19 12:13:28;;;;;;;;;;;12.50;99.90;;;;;;5446589;26;20393;-53
2024/04/19 12:15:54;;;;;;;;;;;12.30;99.90;;;;;;5448985;26;19932;-55
2024/04/19 12:18:20;;;;;;;;;;;12.40;99.90;;;;;;5449393;26;19940;-54
2024/04/19 12:20:45;;;;;;;;;;;12.50;99.90;;;;;;5448151;26;19927;-55
2024/04/19 12:23:11;;;;;;;;;;;12.10;99.90;;;;;;5450384;26;19928;-52
2024/04/19 12:25:37;;;;;;;;;;;12.20;99.90;;;;;;5447756;26;19936;-53
2024/04/19 12:28:03;;;;;;;;;;;12.10;99.90;;;;;;5448407;26;19936;-55
2024/04/19 12:30:29;;;;;;;;;;;11.90;99.90;;;;;;5450529;26;19932;-55
2024/04/19 12:32:54;;;;;;;;;;;12.00;99.90;;;;;;5452195;26;20009;-54
2024/04/19 12:35:21;;;;;;;;;;;12.00;99.90;;;;;;5447110;26;20789;-53
2024/04/19 12:37:46;;;;;;;;;;;12.30;99.90;;;;;;5449065;26;19956;-54
2024/04/19 12:40:12;;;;;;;;;;;12.10;99.90;;;;;;5446854;26;20507;-55
2024/04/19 12:42:38;;;;;;;;;;;12.60;99.90;;;;;;5448779;26;19935;-54
2024/04/19 12:45:04;;;;;;;;;;;12.70;99.90;;;;;;5451255;26;20429;-54
2024/04/19 12:47:30;;;;;;;;;;;12.90;99.90;;;;;;5447782;26;19960;-53
2024/04/19 12:49:56;;;;;;;;;;;12.60;99.90;;;;;;5451171;26;19951;-54
2024/04/19 12:52:22;;;;;;;;;;;12.60;99.90;;;;;;5451831;26;20403;-55
2024/04/19 12:54:48;;;;;;;;;;;12.50;99.90;;;;;;5452479;26;19940;-55
2024/04/19 12:57:14;;;;;;;;;;;12.20;99.90;;;;;;5447190;26;21039;-52
2024/04/19 12:59:40;;;;;;;;;;;12.00;99.90;;;;;;5449277;26;19940;-54
2024/04/19 13:02:08;;;;;;;;;;;12.10;99.90;;;;;;5446096;26;19939;-54
2024/04/19 13:04:34;;;;;;;;;;;11.70;99.90;;;;;;5455263;26;20128;-54
2024/04/19 13:07:00;;;;;;;;;;;11.60;99.90;;;;;;5450274;26;19928;-54
2024/04/19 13:09:27;;;;;;;;;;;12.20;99.90;;;;;;5453859;26;19929;-54
2024/04/19 13:11:53;;;;;;;;;;;12.30;99.90;;;;;;5451727;26;19928;-53
2024/04/19 13:14:23;;;;;;;;;;;12.30;99.90;;;;;;5454342;26;20355;-54
2024/04/19 13:16:49;;;;;;;;;;;12.40;99.90;;;;;;5447296;26;19936;-54
2024/04/19 13:19:15;;;;;;;;;;;12.80;99.90;;;;;;5453015;26;19928;-55
2024/04/19 13:21:41;;;;;;;;;;;13.20;99.90;;;;;;5448417;26;19928;-54
2024/04/19 13:24:07;;;;;;;;;;;12.80;99.90;;;;;;5451889;26;19965;-53
2024/04/19 13:26:32;;;;;;;;;;;12.50;99.90;;;;;;5448521;26;20282;-54
2024/04/19 13:28:58;;;;;;;;;;;12.30;99.90;;;;;;5451554;26;20267;-55
2024/04/19 13:31:24;;;;;;;;;;;12.10;99.90;;;;;;5452156;26;19942;-53
2024/04/19 13:33:50;;;;;;;;;;;11.90;99.90;;;;;;5446385;26;19928;-54
2024/04/19 13:36:17;;;;;;;;;;;11.80;99.90;;;;;;5451537;26;19944;-55
2024/04/19 13:38:43;;;;;;;;;;;11.70;99.90;;;;;;5450648;26;19954;-54
2024/04/19 13:41:09;;;;;;;;;;;11.70;99.90;;;;;;5449916;26;19928;-54
2024/04/19 13:43:35;;;;;;;;;;;11.50;99.90;;;;;;5454941;26;19928;-53
2024/04/19 13:46:02;;;;;;;;;;;11.40;99.90;;;;;;5452912;26;19928;-53
2024/04/19 13:48:37;;;;;;;;;;;11.00;99.90;;;;;;5455384;26;19940;-54
2024/04/19 13:51:03;;;;;;;;;;;11.00;99.90;;;;;;5449293;26;19943;-55
2024/04/19 13:53:29;;;;;;;;;;;11.10;99.90;;;;;;5454183;26;19936;-55
2024/04/19 13:55:54;;;;;;;;;;;11.00;99.90;;;;;;5452402;26;20242;-54
2024/04/19 13:58:23;;;;;;;;;;;10.80;99.90;;;;;;5455318;26;20489;-54
2024/04/19 14:00:50;;;;;;;;;;;10.70;99.90;;;;;;5449046;26;19929;-53
2024/04/19 14:03:17;;;;;;;;;;;10.80;99.90;;;;;;5448215;26;19944;-52
2024/04/19 14:05:43;;;;;;;;;;;10.80;99.90;;;;;;5450935;26;20050;-53
2024/04/19 14:08:09;;;;;;;;;;;10.80;99.90;;;;;;5451992;26;20309;-54
2024/04/19 14:10:34;;;;;;;;;;;10.80;99.90;;;;;;5454116;26;19940;-54
2024/04/19 14:13:02;;;;;;;;;;;10.80;99.90;;;;;;5451683;26;20372;-55
2024/04/19 14:15:29;;;;;;;;;;;10.70;99.90;;;;;;5454353;26;19928;-55
2024/04/19 14:17:55;;;;;;;;;;;10.90;99.90;;;;;;5451323;26;19939;-55
2024/04/19 14:20:21;;;;;;;;;;;10.90;99.90;;;;;;5448299;26;20352;-55
2024/04/19 14:22:47;;;;;;;;;;;11.00;99.90;;;;;;5451976;26;19939;-54
2024/04/19 14:25:12;;;;;;;;;;;11.40;99.90;;;;;;5447253;26;20359;-54